createdAt,value
2017-11-16T00:00:56.452Z,6.22
2017-11-16T00:03:23.931Z,9.40
2017-11-16T00:05:51.416Z,10.88
2017-11-16T00:08:18.907Z,10.18
2017-11-16T00:10:47.361Z,8.85
2017-11-16T00:13:14.851Z,7.40
2017-11-16T00:15:42.332Z,9.05
2017-11-16T00:18:10.224Z,7.90
2017-11-16T00:20:37.695Z,8.18
2017-11-16T00:23:05.172Z,8.75
2017-11-16T00:25:32.673Z,8.00
2017-11-16T00:28:00.551Z,9.88
2017-11-16T00:30:28.273Z,12.50
2017-11-16T00:32:55.755Z,9.15
2017-11-16T00:35:23.653Z,11.57
2017-11-16T00:37:51.145Z,11.68
2017-11-16T00:40:18.620Z,9.20
2017-11-16T00:42:46.112Z,11.38
2017-11-16T00:45:14.002Z,11.80
2017-11-16T00:47:41.500Z,12.73
2017-11-16T00:50:08.975Z,9.20
2017-11-16T00:52:36.864Z,8.88
2017-11-16T00:55:05.703Z,9.57
2017-11-16T00:57:33.180Z,15.52
2017-11-16T01:00:00.696Z,10.60
2017-11-16T01:02:28.172Z,9.60
2017-11-16T01:04:55.665Z,10.93
2017-11-16T01:07:27.233Z,10.75
2017-11-16T01:09:54.738Z,9.43
2017-11-16T01:12:22.212Z,9.10
2017-11-16T01:14:49.703Z,14.95
2017-11-16T01:17:17.572Z,16.12
2017-11-16T01:19:45.476Z,12.20
2017-11-16T01:22:12.949Z,13.60
2017-11-16T01:24:40.436Z,17.15
2017-11-16T01:27:09.900Z,9.77
2017-11-16T01:29:37.379Z,6.50
2017-11-16T01:32:04.856Z,8.25
2017-11-16T01:34:32.777Z,11.25
2017-11-16T01:37:00.247Z,8.30
2017-11-16T01:39:27.747Z,10.18
2017-11-16T01:41:55.625Z,9.48
2017-11-16T01:44:23.125Z,7.80
2017-11-16T01:46:50.623Z,8.00
2017-11-16T01:49:18.100Z,8.30
2017-11-16T01:51:45.994Z,8.82
2017-11-16T01:54:13.500Z,11.02
2017-11-16T01:56:41.033Z,9.52
2017-11-16T01:59:08.523Z,7.32
2017-11-16T02:01:36.021Z,7.68
2017-11-16T02:04:03.516Z,7.90
2017-11-16T02:06:31.002Z,10.20
2017-11-16T02:08:58.892Z,6.55
2017-11-16T02:11:26.369Z,7.75
2017-11-16T02:13:53.843Z,6.78
2017-11-16T02:16:21.676Z,7.45
2017-11-16T02:18:49.153Z,7.68
2017-11-16T02:21:16.650Z,6.82
2017-11-16T02:23:44.135Z,7.35
2017-11-16T02:26:12.041Z,7.68
2017-11-16T02:28:39.520Z,6.07
2017-11-16T02:31:07.013Z,8.45
2017-11-16T02:33:34.899Z,10.48
2017-11-16T02:36:02.417Z,8.55
2017-11-16T02:38:29.958Z,7.37
2017-11-16T02:40:57.431Z,8.55
2017-11-16T02:43:24.933Z,8.38
2017-11-16T02:45:52.412Z,8.52
2017-11-16T02:48:19.889Z,9.80
2017-11-16T02:50:47.396Z,10.13
2017-11-16T02:53:15.845Z,7.85
2017-11-16T02:55:43.337Z,8.15
2017-11-16T02:58:10.844Z,6.90
2017-11-16T03:00:38.337Z,8.50
2017-11-16T03:03:06.203Z,9.73
2017-11-16T03:05:34.086Z,8.75
2017-11-16T03:08:01.562Z,11.50
2017-11-16T03:10:29.988Z,6.93
2017-11-16T03:12:57.517Z,10.68
2017-11-16T03:15:24.995Z,8.50
2017-11-16T03:17:52.493Z,9.70
2017-11-16T03:20:20.392Z,8.90
2017-11-16T03:22:47.869Z,7.60
2017-11-16T03:25:15.370Z,9.25
2017-11-16T03:27:43.255Z,9.05
2017-11-16T03:30:10.750Z,8.13
2017-11-16T03:32:38.266Z,8.20
2017-11-16T03:35:06.668Z,9.90
2017-11-16T03:37:34.146Z,9.50
2017-11-16T03:40:01.663Z,9.20
2017-11-16T03:42:30.087Z,7.90
2017-11-16T03:44:57.580Z,9.05
2017-11-16T03:47:25.466Z,8.60
2017-11-16T03:49:52.948Z,10.70
2017-11-16T03:52:20.433Z,9.35
2017-11-16T03:54:47.931Z,9.88
2017-11-16T03:57:15.808Z,7.93
2017-11-16T03:59:43.336Z,7.37
2017-11-16T04:02:12.765Z,5.20
2017-11-16T04:04:41.160Z,9.25
2017-11-16T04:07:08.637Z,8.68
2017-11-16T04:09:36.137Z,9.40
2017-11-16T04:12:04.024Z,7.65
2017-11-16T04:14:31.508Z,9.30
2017-11-16T04:16:59.000Z,7.57
2017-11-16T04:19:27.412Z,9.77
2017-11-16T04:21:55.273Z,9.65
2017-11-16T04:24:23.165Z,7.75
2017-11-16T04:26:51.607Z,6.25
2017-11-16T04:29:19.111Z,7.20
2017-11-16T04:31:46.598Z,5.75
2017-11-16T04:34:14.087Z,5.82
2017-11-16T04:36:41.961Z,7.47
2017-11-16T04:39:09.823Z,9.13
2017-11-16T04:41:37.717Z,6.75
2017-11-16T04:44:06.101Z,6.43
2017-11-16T04:46:33.619Z,8.18
2017-11-16T04:49:02.104Z,7.82
2017-11-16T04:51:29.591Z,8.65
2017-11-16T04:53:57.097Z,7.32
2017-11-16T04:56:24.588Z,4.62
2017-11-16T04:58:53.475Z,5.70
2017-11-16T05:01:21.363Z,5.07
2017-11-16T05:03:50.812Z,14.82
2017-11-16T05:06:18.335Z,6.32
2017-11-16T05:08:45.833Z,6.82
2017-11-16T05:11:13.331Z,6.10
2017-11-16T05:13:42.779Z,6.68
2017-11-16T05:16:10.281Z,5.35
2017-11-16T05:18:38.172Z,7.25
2017-11-16T05:21:05.669Z,8.70
2017-11-16T05:23:33.174Z,7.07
2017-11-16T05:26:01.056Z,7.05
2017-11-16T05:28:28.564Z,5.47
2017-11-16T05:30:56.051Z,4.97
2017-11-16T05:33:23.940Z,4.45
2017-11-16T05:35:51.436Z,5.65
2017-11-16T05:38:20.844Z,9.07
2017-11-16T05:40:48.350Z,5.30
2017-11-16T05:43:15.836Z,7.03
2017-11-16T05:45:43.340Z,6.40
2017-11-16T05:48:10.829Z,5.78
2017-11-16T05:50:38.328Z,4.20
2017-11-16T05:53:05.820Z,6.10
2017-11-16T05:55:33.730Z,9.52
2017-11-16T05:58:01.220Z,7.03
2017-11-16T06:00:28.692Z,8.80
2017-11-16T06:02:56.202Z,6.37
2017-11-16T06:05:24.621Z,7.95
2017-11-16T06:07:52.119Z,8.50
2017-11-16T06:10:19.604Z,8.00
2017-11-16T06:12:47.091Z,8.13
2017-11-16T06:15:15.516Z,7.18
2017-11-16T06:17:43.014Z,6.28
2017-11-16T06:20:10.519Z,7.43
2017-11-16T06:22:38.391Z,6.78
2017-11-16T06:25:06.288Z,5.40
2017-11-16T06:27:33.787Z,6.20
2017-11-16T06:30:01.289Z,6.57
2017-11-16T06:32:32.592Z,6.78
2017-11-16T06:35:00.067Z,6.35
2017-11-16T06:37:27.972Z,6.57
2017-11-16T06:39:55.460Z,6.57
2017-11-16T06:42:22.951Z,5.37
2017-11-16T06:44:50.836Z,6.07
2017-11-16T06:47:18.339Z,6.22
2017-11-16T06:49:45.847Z,9.38
2017-11-16T06:52:13.734Z,6.57
2017-11-16T06:54:41.239Z,4.95
2017-11-16T06:57:08.749Z,6.87
2017-11-16T06:59:36.241Z,5.95
2017-11-16T07:02:03.736Z,5.57
2017-11-16T07:04:31.645Z,7.05
2017-11-16T07:06:59.144Z,7.47
2017-11-16T07:09:26.621Z,7.95
2017-11-16T07:11:54.513Z,7.50
2017-11-16T07:14:22.014Z,9.77
2017-11-16T07:16:49.508Z,5.60
2017-11-16T07:19:17.385Z,5.10
2017-11-16T07:21:45.283Z,6.20
2017-11-16T07:24:12.782Z,6.12
2017-11-16T07:26:40.669Z,5.60
2017-11-16T07:29:08.576Z,11.38
2017-11-16T07:31:36.060Z,7.30
2017-11-16T07:34:04.525Z,7.20
2017-11-16T07:36:32.024Z,7.28
2017-11-16T07:39:01.838Z,8.07
2017-11-16T07:41:29.737Z,8.48
2017-11-16T07:43:57.252Z,7.97
2017-11-16T07:46:24.736Z,10.07
2017-11-16T07:48:52.621Z,7.78
2017-11-16T07:51:20.125Z,9.63
2017-11-16T07:53:47.607Z,8.25
2017-11-16T07:56:16.435Z,9.95
2017-11-16T07:58:43.949Z,12.63
2017-11-16T08:01:19.738Z,11.02
2017-11-16T08:03:47.248Z,9.90
2017-11-16T08:06:14.744Z,8.18
2017-11-16T08:08:42.239Z,10.80
2017-11-16T08:11:09.736Z,11.40
2017-11-16T08:13:37.621Z,9.32
2017-11-16T08:16:05.125Z,12.25
2017-11-16T08:18:32.640Z,11.32
2017-11-16T08:21:00.144Z,12.80
2017-11-16T08:23:27.632Z,11.85
2017-11-16T08:25:55.971Z,10.98
2017-11-16T08:28:23.467Z,11.50
2017-11-16T08:30:51.361Z,12.85
2017-11-16T08:33:18.855Z,11.90
2017-11-16T08:35:46.337Z,9.00
2017-11-16T08:38:13.830Z,15.05
2017-11-16T08:40:42.252Z,16.05
2017-11-16T08:43:09.743Z,18.35
2017-11-16T08:45:37.643Z,17.27
2017-11-16T08:48:05.119Z,15.27
2017-11-16T08:50:32.608Z,14.85
2017-11-16T08:53:00.096Z,16.50
2017-11-16T08:55:27.596Z,16.80
2017-11-16T08:57:55.076Z,15.43
2017-11-16T09:00:22.572Z,14.52
2017-11-16T09:02:50.456Z,16.45
2017-11-16T09:05:18.133Z,12.70
2017-11-16T09:07:45.639Z,13.35
2017-11-16T09:10:13.145Z,16.58
2017-11-16T09:12:40.640Z,12.30
2017-11-16T09:15:08.133Z,15.40
2017-11-16T09:17:36.021Z,14.55
2017-11-16T09:20:03.520Z,13.32
2017-11-16T09:22:31.455Z,13.70
2017-11-16T09:24:58.928Z,14.75
2017-11-16T09:27:26.422Z,15.73
2017-11-16T09:29:53.902Z,11.12
2017-11-16T09:32:21.417Z,13.60
2017-11-16T09:34:48.889Z,14.13
2017-11-16T09:37:18.342Z,14.52
2017-11-16T09:39:45.836Z,12.55
2017-11-16T09:42:13.351Z,15.35
2017-11-16T09:44:42.789Z,11.75
2017-11-16T09:47:10.268Z,14.73
2017-11-16T09:49:37.735Z,9.80
2017-11-16T09:52:05.224Z,14.57
2017-11-16T09:54:32.741Z,14.48
2017-11-16T09:57:00.253Z,12.75
2017-11-16T09:59:27.744Z,11.52
2017-11-16T10:01:55.239Z,13.85
2017-11-16T10:04:23.121Z,11.38
2017-11-16T10:06:50.619Z,12.65
2017-11-16T10:09:18.111Z,9.88
2017-11-16T10:11:45.613Z,10.15
2017-11-16T10:14:13.120Z,13.73
2017-11-16T10:16:40.645Z,13.23
2017-11-16T10:19:08.119Z,9.32
2017-11-16T10:21:35.608Z,10.18
2017-11-16T10:24:03.500Z,12.77
2017-11-16T10:26:32.996Z,13.82
2017-11-16T10:29:00.480Z,13.95
2017-11-16T10:31:27.960Z,12.70
2017-11-16T10:33:55.470Z,15.10
2017-11-16T10:36:22.988Z,17.55
2017-11-16T10:38:50.484Z,17.50
2017-11-16T10:41:18.376Z,19.10
2017-11-16T10:43:45.881Z,15.82
2017-11-16T10:46:13.794Z,13.02
2017-11-16T10:48:43.293Z,15.98
2017-11-16T10:51:10.828Z,16.87
2017-11-16T10:53:40.659Z,22.33
2017-11-16T10:56:08.161Z,15.25
2017-11-16T10:58:35.672Z,15.82
2017-11-16T11:01:03.176Z,14.98
2017-11-16T11:03:30.668Z,16.45
2017-11-16T11:05:58.586Z,14.75
2017-11-16T11:08:28.059Z,17.77
2017-11-16T11:10:56.458Z,13.73
2017-11-16T11:13:23.977Z,16.48
2017-11-16T11:15:51.884Z,17.10
2017-11-16T11:18:19.389Z,17.77
2017-11-16T11:20:46.892Z,14.87
2017-11-16T11:23:14.427Z,20.10
2017-11-16T11:25:42.312Z,17.40
2017-11-16T11:28:09.808Z,18.23
2017-11-16T11:30:39.278Z,14.57
2017-11-16T11:33:06.779Z,15.02
2017-11-16T11:35:34.274Z,15.85
2017-11-16T11:38:02.180Z,17.67
2017-11-16T11:40:31.648Z,36.53
2017-11-16T11:42:59.541Z,17.80
2017-11-16T11:45:27.028Z,15.15
2017-11-16T11:47:54.544Z,13.13
2017-11-16T11:50:22.049Z,14.68
2017-11-16T11:52:49.535Z,17.98
2017-11-16T11:55:17.122Z,24.15
2017-11-16T11:57:45.498Z,13.98
2017-11-16T12:00:12.991Z,14.02
2017-11-16T12:02:40.484Z,11.35
2017-11-16T12:05:08.929Z,15.27
2017-11-16T12:07:36.412Z,14.87
2017-11-16T12:10:03.912Z,15.77
2017-11-16T12:12:32.363Z,10.80
2017-11-16T12:14:59.855Z,13.43
2017-11-16T12:17:27.344Z,17.90
2017-11-16T12:19:54.904Z,16.25
2017-11-16T12:22:22.483Z,14.90
2017-11-16T12:24:51.026Z,16.58
2017-11-16T12:27:18.532Z,13.48
2017-11-16T12:29:46.019Z,14.77
2017-11-16T12:32:13.528Z,14.80
2017-11-16T12:34:41.017Z,16.87
2017-11-16T12:37:08.898Z,14.10
2017-11-16T12:39:36.779Z,15.25
2017-11-16T12:42:04.267Z,15.75
2017-11-16T12:44:31.791Z,13.98
2017-11-16T12:47:00.204Z,15.40
2017-11-16T12:49:27.686Z,17.83
2017-11-16T12:51:55.193Z,17.12
2017-11-16T12:54:22.672Z,12.98
2017-11-16T12:56:50.162Z,15.65
2017-11-16T12:59:18.417Z,15.88
2017-11-16T13:01:46.909Z,13.98
2017-11-16T13:04:14.396Z,16.45
2017-11-16T13:06:42.300Z,18.08
2017-11-16T13:09:09.800Z,14.82
2017-11-16T13:11:37.309Z,15.15
2017-11-16T13:14:04.925Z,13.40
2017-11-16T13:16:34.094Z,17.83
2017-11-16T13:19:01.580Z,15.63
2017-11-16T13:21:29.090Z,14.80
2017-11-16T13:23:56.572Z,15.98
2017-11-16T13:26:24.064Z,14.68
2017-11-16T13:28:51.540Z,17.75
2017-11-16T13:31:19.077Z,15.02
2017-11-16T13:33:46.560Z,19.75
2017-11-16T13:36:14.037Z,43.28
2017-11-16T13:38:42.448Z,17.60
2017-11-16T13:41:09.941Z,17.83
2017-11-16T13:43:37.842Z,14.52
2017-11-16T13:46:05.329Z,10.57
2017-11-16T13:48:32.832Z,13.25
2017-11-16T13:51:00.738Z,15.27
2017-11-16T13:53:28.260Z,15.57
2017-11-16T13:55:56.166Z,15.02
2017-11-16T13:58:23.648Z,14.55
2017-11-16T14:00:52.103Z,12.70
2017-11-16T14:03:19.621Z,18.35
2017-11-16T14:05:47.076Z,11.15
2017-11-16T14:08:14.964Z,15.25
2017-11-16T14:10:42.439Z,11.15
2017-11-16T14:13:11.878Z,13.57
2017-11-16T14:15:39.357Z,13.00
2017-11-16T14:18:07.232Z,15.02
2017-11-16T14:20:37.115Z,12.77
2017-11-16T14:23:04.595Z,12.80
2017-11-16T14:25:32.488Z,11.15
2017-11-16T14:27:59.992Z,19.85
2017-11-16T14:30:27.479Z,15.50
2017-11-16T14:32:56.988Z,13.95
2017-11-16T14:35:25.809Z,15.13
2017-11-16T14:37:53.328Z,11.85
2017-11-16T14:40:21.205Z,11.52
2017-11-16T14:42:49.100Z,15.98
2017-11-16T14:45:16.581Z,12.18
2017-11-16T14:47:44.064Z,14.23
2017-11-16T14:50:11.555Z,17.58
2017-11-16T14:52:39.028Z,12.23
2017-11-16T14:55:06.528Z,15.63
2017-11-16T14:57:34.004Z,14.15
2017-11-16T15:00:01.547Z,16.25
2017-11-16T15:02:29.039Z,16.52
2017-11-16T15:04:56.908Z,16.67
2017-11-16T15:07:24.815Z,14.87
2017-11-16T15:09:52.291Z,15.65
2017-11-16T15:12:20.556Z,19.17
2017-11-16T15:14:48.037Z,20.02
2017-11-16T15:17:15.517Z,20.48
2017-11-16T15:19:43.410Z,17.27
2017-11-16T15:22:10.889Z,13.93
2017-11-16T15:24:38.415Z,23.75
2017-11-16T15:27:06.867Z,17.48
2017-11-16T15:29:34.358Z,17.08
2017-11-16T15:32:01.869Z,12.65
2017-11-16T15:34:29.348Z,19.10
2017-11-16T15:36:57.612Z,16.95
2017-11-16T15:39:25.084Z,17.25
2017-11-16T15:41:52.967Z,21.67
2017-11-16T15:44:20.437Z,16.52
2017-11-16T15:46:48.860Z,17.58
2017-11-16T15:49:16.375Z,18.25
2017-11-16T15:51:43.849Z,23.48
2017-11-16T15:54:11.346Z,16.35
2017-11-16T15:56:38.822Z,18.02
2017-11-16T15:59:06.691Z,19.87
2017-11-16T16:01:34.609Z,20.75
2017-11-16T16:04:02.085Z,22.08
2017-11-16T16:06:29.584Z,21.02
2017-11-16T16:08:57.070Z,22.45
2017-11-16T16:11:24.565Z,19.65
2017-11-16T16:13:52.039Z,19.62
2017-11-16T16:16:19.976Z,26.67
2017-11-16T16:18:47.482Z,36.40
2017-11-16T16:21:15.354Z,36.60
2017-11-16T16:23:42.856Z,26.05
2017-11-16T16:26:10.346Z,29.35
2017-11-16T16:28:38.234Z,23.58
2017-11-16T16:31:05.736Z,25.58
2017-11-16T16:33:33.215Z,25.23
2017-11-16T16:36:02.672Z,32.20
2017-11-16T16:38:30.160Z,28.80
2017-11-16T16:40:57.692Z,30.10
2017-11-16T16:43:25.208Z,37.67
2017-11-16T16:45:52.695Z,23.35
2017-11-16T16:48:21.257Z,23.70
2017-11-16T16:50:49.151Z,33.95
2017-11-16T16:53:16.669Z,30.20
2017-11-16T16:55:44.596Z,30.90
2017-11-16T16:58:12.085Z,34.35
2017-11-16T17:00:39.597Z,37.25
2017-11-16T17:03:07.994Z,30.37
2017-11-16T17:05:35.531Z,34.08
2017-11-16T17:08:03.887Z,32.65
2017-11-16T17:10:31.764Z,31.50
2017-11-16T17:13:00.886Z,40.47
2017-11-16T17:15:28.457Z,32.90
2017-11-16T17:17:56.792Z,38.33
2017-11-16T17:20:24.687Z,32.50
2017-11-16T17:22:52.223Z,31.85
2017-11-16T17:25:19.719Z,39.60
2017-11-16T17:27:47.275Z,30.75
2017-11-16T17:30:14.754Z,25.55
2017-11-16T17:32:42.232Z,31.87
2017-11-16T17:35:09.741Z,31.33
2017-11-16T17:37:38.117Z,30.73
2017-11-16T17:40:05.636Z,33.00
2017-11-16T17:42:33.516Z,45.35
2017-11-16T17:45:01.020Z,36.83
2017-11-16T17:47:28.525Z,34.90
2017-11-16T17:49:56.439Z,37.25
2017-11-16T17:52:23.953Z,38.42
2017-11-16T17:54:51.877Z,27.73
2017-11-16T17:57:19.378Z,31.00
2017-11-16T17:59:47.281Z,31.55
2017-11-16T18:02:16.751Z,46.67
2017-11-16T18:04:52.734Z,36.13
2017-11-16T18:07:20.314Z,39.20
2017-11-16T18:09:47.829Z,41.22
2017-11-16T18:12:15.361Z,36.95
2017-11-16T18:14:42.856Z,26.75
2017-11-16T18:17:10.362Z,36.33
2017-11-16T18:19:37.856Z,33.50
2017-11-16T18:22:05.732Z,36.78
2017-11-16T18:24:33.229Z,31.23
2017-11-16T18:27:00.757Z,35.10
2017-11-16T18:29:29.188Z,43.67
2017-11-16T18:32:09.500Z,37.00
2017-11-16T18:34:37.020Z,34.67
2017-11-16T18:37:04.901Z,29.90
2017-11-16T18:39:32.816Z,39.83
2017-11-16T18:42:00.305Z,30.27
2017-11-16T18:44:27.839Z,36.03
2017-11-16T18:46:55.341Z,42.92
2017-11-16T18:49:23.256Z,30.70
2017-11-16T18:51:50.766Z,28.52
2017-11-16T18:54:18.644Z,30.12
2017-11-16T18:56:48.159Z,29.40
2017-11-16T18:59:15.714Z,33.33
2017-11-16T19:01:43.290Z,35.33
2017-11-16T19:04:10.804Z,35.55
2017-11-16T19:06:38.352Z,36.92
2017-11-16T19:09:06.854Z,27.42
2017-11-16T19:11:34.756Z,31.45
2017-11-16T19:14:02.283Z,40.65
2017-11-16T19:16:30.194Z,30.30
2017-11-16T19:18:59.681Z,34.53
2017-11-16T19:21:27.197Z,35.70
2017-11-16T19:23:54.697Z,35.42
2017-11-16T19:26:23.135Z,33.72
2017-11-16T19:28:50.642Z,26.15
2017-11-16T19:31:18.168Z,33.40
2017-11-16T19:33:46.061Z,30.45
2017-11-16T19:36:13.587Z,28.80
2017-11-16T19:38:41.483Z,28.17
2017-11-16T19:41:08.992Z,26.70
2017-11-16T19:43:36.513Z,27.55
2017-11-16T19:46:04.013Z,26.90
2017-11-16T19:48:31.571Z,27.25
2017-11-16T19:50:59.099Z,23.55
2017-11-16T19:53:27.459Z,25.62
2017-11-16T19:55:54.998Z,34.13
2017-11-16T19:58:22.552Z,33.15
2017-11-16T20:00:50.501Z,29.08
2017-11-16T20:03:18.039Z,26.40
2017-11-16T20:05:45.560Z,30.95
2017-11-16T20:08:13.075Z,25.35
2017-11-16T20:10:40.574Z,29.12
2017-11-16T20:13:08.121Z,26.83
2017-11-16T20:15:35.631Z,24.73
2017-11-16T20:18:03.140Z,28.30
2017-11-16T20:20:32.612Z,27.10
2017-11-16T20:23:00.108Z,30.02
2017-11-16T20:25:27.629Z,24.30
2017-11-16T20:27:55.157Z,22.08
2017-11-16T20:30:22.670Z,24.52
2017-11-16T20:32:50.573Z,22.90
2017-11-16T20:35:18.112Z,31.40
2017-11-16T20:38:03.312Z,21.25
2017-11-16T20:43:40.893Z,21.02
2017-11-16T20:46:25.095Z,21.70
2017-11-16T20:48:53.369Z,23.00
2017-11-16T20:51:40.578Z,20.12
2017-11-16T20:54:24.794Z,27.37
2017-11-16T20:56:53.269Z,26.45
2017-11-16T20:59:20.768Z,24.70
2017-11-16T21:01:48.295Z,22.05
2017-11-16T21:04:15.785Z,28.48
2017-11-16T21:06:43.319Z,21.08
2017-11-16T21:09:10.819Z,24.58
2017-11-16T21:11:40.333Z,20.35
2017-11-16T21:14:07.847Z,30.37
2017-11-16T21:16:35.354Z,17.80
2017-11-16T21:19:03.869Z,28.85
2017-11-16T21:21:32.371Z,23.10
2017-11-16T21:23:59.860Z,21.60
2017-11-16T21:26:27.358Z,20.77
2017-11-16T21:28:54.895Z,25.00
2017-11-16T21:31:22.401Z,26.33
2017-11-16T21:33:51.855Z,27.35
2017-11-16T21:36:20.747Z,23.40
2017-11-16T21:38:48.270Z,27.75
2017-11-16T21:41:15.828Z,27.65
2017-11-16T21:43:43.328Z,29.77
2017-11-16T21:46:11.259Z,30.02
2017-11-16T21:48:38.759Z,34.28
2017-11-16T21:51:06.718Z,29.90
2017-11-16T21:53:34.266Z,24.95
2017-11-16T21:56:01.799Z,21.75
2017-11-16T21:58:29.320Z,24.12
2017-11-16T22:00:57.252Z,31.90
2017-11-16T22:03:24.763Z,24.15
2017-11-16T22:05:52.285Z,26.50
2017-11-16T22:08:20.297Z,22.75
2017-11-16T22:10:47.958Z,23.40
2017-11-16T22:13:15.512Z,21.85
2017-11-16T22:15:43.676Z,27.75
2017-11-16T22:18:14.188Z,26.58
2017-11-16T22:20:43.001Z,20.77
2017-11-16T22:23:12.329Z,25.70
2017-11-16T22:25:41.304Z,23.73
2017-11-16T22:28:09.297Z,24.60
2017-11-16T22:30:40.051Z,23.17
2017-11-16T22:33:08.302Z,27.42
2017-11-16T22:35:35.944Z,25.17
2017-11-16T22:38:09.619Z,23.25
2017-11-16T22:40:37.243Z,20.62
2017-11-16T22:43:04.925Z,29.30
2017-11-16T22:45:35.645Z,22.85
2017-11-16T22:48:04.639Z,36.00
2017-11-16T22:50:33.163Z,23.38
2017-11-16T22:53:06.030Z,28.50
2017-11-16T22:55:34.042Z,32.42
2017-11-16T22:58:02.518Z,21.67
2017-11-16T23:00:30.500Z,25.55
2017-11-16T23:02:58.188Z,28.67
2017-11-16T23:05:26.688Z,25.77
2017-11-16T23:07:54.395Z,26.12
2017-11-16T23:10:23.045Z,23.62
2017-11-16T23:12:53.918Z,22.55
2017-11-16T23:15:22.104Z,29.70
2017-11-16T23:17:51.271Z,27.27
2017-11-16T23:20:19.314Z,33.70
2017-11-16T23:22:49.589Z,27.73
2017-11-16T23:25:21.162Z,32.38
2017-11-16T23:27:49.076Z,25.33
2017-11-16T23:30:18.114Z,35.50
2017-11-16T23:32:51.167Z,25.12
2017-11-16T23:35:20.219Z,25.27
2017-11-16T23:37:49.100Z,29.48
2017-11-16T23:40:17.808Z,23.98
2017-11-16T23:42:47.922Z,26.05
2017-11-16T23:45:15.649Z,27.77
2017-11-16T23:47:47.339Z,25.15
2017-11-16T23:50:19.108Z,23.52
2017-11-16T23:52:50.883Z,24.70
2017-11-16T23:55:20.983Z,28.77
2017-11-16T23:57:57.789Z,24.37
